createdAt,value
2023-01-19T00:01:28.115Z,1.76
2023-01-19T00:03:57.604Z,1.78
2023-01-19T00:06:26.243Z,1.75
2023-01-19T00:08:55.638Z,1.71
2023-01-19T00:11:24.794Z,1.53
2023-01-19T00:13:53.718Z,1.71
2023-01-19T00:16:24.087Z,1.71
2023-01-19T00:18:53.545Z,1.61
2023-01-19T00:21:23.577Z,1.72
2023-01-19T00:23:52.757Z,1.71
2023-01-19T00:26:23.335Z,1.67
2023-01-19T00:28:53.500Z,1.70
2023-01-19T00:31:22.082Z,1.60
2023-01-19T00:33:53.076Z,1.72
2023-01-19T00:36:21.712Z,1.69
2023-01-19T00:38:51.207Z,1.76
2023-01-19T00:41:40.249Z,1.74
2023-01-19T00:44:07.688Z,1.79
2023-01-19T00:46:37.964Z,1.81
2023-01-19T00:49:07.650Z,1.79
2023-01-19T00:51:36.690Z,1.72
2023-01-19T00:54:05.798Z,1.77
2023-01-19T00:56:35.351Z,1.79
2023-01-19T00:59:05.035Z,1.83
2023-01-19T01:01:45.022Z,1.75
2023-01-19T01:04:17.107Z,1.70
2023-01-19T01:06:45.835Z,1.83
2023-01-19T01:09:14.166Z,1.80
2023-01-19T01:11:44.406Z,1.76
2023-01-19T01:14:14.162Z,1.73
2023-01-19T01:16:43.130Z,1.65
2023-01-19T01:19:11.533Z,1.71
2023-01-19T01:21:41.749Z,1.60
2023-01-19T01:24:13.050Z,1.73
2023-01-19T01:26:41.338Z,1.75
2023-01-19T01:29:09.987Z,1.62
2023-01-19T01:31:38.380Z,1.76
2023-01-19T01:34:07.868Z,1.75
2023-01-19T01:36:36.197Z,1.79
2023-01-19T01:39:07.065Z,1.77
2023-01-19T01:41:36.156Z,1.65
2023-01-19T01:44:25.875Z,1.76
2023-01-19T01:46:54.432Z,1.76
2023-01-19T01:49:23.344Z,1.73
2023-01-19T01:51:54.491Z,1.74
2023-01-19T01:54:28.460Z,1.78
2023-01-19T01:57:02.720Z,1.74
2023-01-19T01:59:39.058Z,1.71
2023-01-19T02:02:28.209Z,1.55
2023-01-19T02:05:00.915Z,1.69
2023-01-19T02:07:54.576Z,1.67
2023-01-19T02:10:42.088Z,1.68
2023-01-19T02:13:20.925Z,1.66
2023-01-19T02:15:50.981Z,1.63
2023-01-19T02:18:20.909Z,1.56
2023-01-19T02:20:58.349Z,1.52
2023-01-19T02:23:44.373Z,1.61
2023-01-19T02:26:16.347Z,1.61
2023-01-19T02:28:49.671Z,1.60
2023-01-19T02:31:18.528Z,1.58
2023-01-19T02:33:47.271Z,1.62
2023-01-19T02:36:18.251Z,1.61
2023-01-19T02:38:49.885Z,1.60
2023-01-19T02:41:22.730Z,1.58
2023-01-19T02:43:51.861Z,1.51
2023-01-19T02:46:20.478Z,1.48
2023-01-19T02:48:48.847Z,1.48
2023-01-19T02:51:22.474Z,1.41
2023-01-19T02:54:28.748Z,1.39
2023-01-19T02:57:15.577Z,1.39
2023-01-19T02:59:56.133Z,1.40
2023-01-19T03:02:36.081Z,1.38
2023-01-19T03:05:27.944Z,1.39
2023-01-19T03:08:03.431Z,1.41
2023-01-19T03:10:42.028Z,1.40
2023-01-19T03:13:15.921Z,1.41
2023-01-19T03:15:50.373Z,1.42
2023-01-19T03:18:23.305Z,1.33
2023-01-19T03:20:54.435Z,1.41
2023-01-19T03:23:27.565Z,1.42
2023-01-19T03:26:00.342Z,1.36
2023-01-19T03:28:32.652Z,1.27
2023-01-19T03:31:06.922Z,1.19
2023-01-19T03:33:39.211Z,1.16
2023-01-19T03:36:17.679Z,1.19
2023-01-19T03:38:50.511Z,1.15
2023-01-19T03:41:23.595Z,1.12
2023-01-19T03:43:54.865Z,0.79
2023-01-19T03:46:25.345Z,1.05
2023-01-19T03:48:55.210Z,1.07
2023-01-19T03:51:23.639Z,1.12
2023-01-19T03:53:52.323Z,1.09
2023-01-19T03:56:24.877Z,1.11
2023-01-19T03:58:55.061Z,1.08
2023-01-19T04:01:25.796Z,1.01
2023-01-19T04:03:54.957Z,0.98
2023-01-19T04:06:24.264Z,0.99
2023-01-19T04:08:53.000Z,0.99
2023-01-19T04:11:23.050Z,1.02
2023-01-19T04:13:51.678Z,0.99
2023-01-19T04:16:21.265Z,0.97
2023-01-19T04:18:50.130Z,0.95
2023-01-19T04:21:18.463Z,0.94
2023-01-19T04:23:47.463Z,0.94
2023-01-19T04:26:15.772Z,0.94
2023-01-19T04:28:45.516Z,0.94
2023-01-19T04:31:14.392Z,0.93
2023-01-19T04:33:42.773Z,0.91
2023-01-19T04:36:11.511Z,0.82
2023-01-19T04:38:39.884Z,0.86
2023-01-19T04:41:08.617Z,0.85
2023-01-19T04:43:36.952Z,0.81
2023-01-19T04:46:06.770Z,0.82
2023-01-19T04:48:35.220Z,0.81
2023-01-19T04:51:03.552Z,0.78
2023-01-19T04:53:31.871Z,0.74
2023-01-19T04:56:01.085Z,0.58
2023-01-19T04:58:31.055Z,0.30
2023-01-19T05:00:59.556Z,0.63
2023-01-19T05:03:29.752Z,0.59
2023-01-19T05:05:58.068Z,0.58
2023-01-19T05:08:28.296Z,0.54
2023-01-19T05:10:57.541Z,0.58
2023-01-19T05:13:26.381Z,0.52
2023-01-19T05:15:54.791Z,0.50
2023-01-19T05:18:23.380Z,0.50
2023-01-19T05:20:53.060Z,0.42
2023-01-19T05:23:21.826Z,0.46
2023-01-19T05:25:50.667Z,0.45
2023-01-19T05:28:21.179Z,0.46
2023-01-19T05:30:50.830Z,0.49
2023-01-19T05:33:19.210Z,0.51
2023-01-19T05:35:51.096Z,0.48
2023-01-19T05:38:34.350Z,0.24
2023-01-19T05:41:04.543Z,0.48
2023-01-19T05:43:33.822Z,0.45
2023-01-19T05:46:02.121Z,0.45
2023-01-19T05:48:31.388Z,0.42
2023-01-19T05:51:00.027Z,0.41
2023-01-19T05:53:30.739Z,0.41
2023-01-19T05:56:02.778Z,0.37
2023-01-19T05:58:32.315Z,0.41
2023-01-19T06:01:06.661Z,0.44
2023-01-19T06:03:36.249Z,0.45
2023-01-19T06:06:05.675Z,0.49
2023-01-19T06:08:35.393Z,0.51
2023-01-19T06:11:07.443Z,0.52
2023-01-19T06:13:36.059Z,0.07
2023-01-19T06:16:04.542Z,0.57
2023-01-19T06:18:34.156Z,0.57
2023-01-19T06:21:05.071Z,0.54
2023-01-19T06:23:37.185Z,0.54
2023-01-19T06:26:05.830Z,0.47
2023-01-19T06:28:34.165Z,0.44
2023-01-19T06:31:03.065Z,0.43
2023-01-19T06:33:31.521Z,0.42
2023-01-19T06:36:01.260Z,0.41
2023-01-19T06:38:29.707Z,0.20
2023-01-19T06:40:59.778Z,0.28
2023-01-19T06:43:28.377Z,0.30
2023-01-19T06:45:57.261Z,0.28
2023-01-19T06:48:25.792Z,0.38
2023-01-19T06:50:54.830Z,0.33
2023-01-19T06:53:23.168Z,0.29
2023-01-19T06:55:51.956Z,0.30
2023-01-19T06:58:22.227Z,0.30
2023-01-19T07:00:51.861Z,0.17
2023-01-19T07:03:23.711Z,0.17
2023-01-19T07:05:53.423Z,0.06
2023-01-19T07:08:22.053Z,0.24
2023-01-19T07:11:24.659Z,0.18
2023-01-19T07:13:42.947Z,0.21
2023-01-19T07:16:14.615Z,0.23
2023-01-19T07:18:43.252Z,0.19
2023-01-19T07:21:11.569Z,0.19
2023-01-19T07:23:39.952Z,0.18
2023-01-19T07:26:08.242Z,0.18
2023-01-19T07:28:37.329Z,0.21
2023-01-19T07:31:07.735Z,0.19
2023-01-19T07:33:36.174Z,0.07
2023-01-19T07:36:05.375Z,0.21
2023-01-19T07:38:33.672Z,0.18
2023-01-19T07:41:03.205Z,0.16
2023-01-19T07:43:31.910Z,0.16
2023-01-19T07:46:01.777Z,-0.01
2023-01-19T07:48:31.543Z,0.17
2023-01-19T07:51:02.120Z,0.15
2023-01-19T07:53:30.452Z,0.11
2023-01-19T07:55:59.010Z,0.13
2023-01-19T07:58:27.777Z,0.15
2023-01-19T08:00:56.185Z,0.16
2023-01-19T08:03:25.138Z,0.18
2023-01-19T08:05:56.978Z,0.20
2023-01-19T08:08:25.634Z,0.35
2023-01-19T08:10:54.332Z,0.83
2023-01-19T08:13:22.645Z,0.41
2023-01-19T08:15:52.265Z,0.77
2023-01-19T08:18:21.474Z,0.66
2023-01-19T08:20:49.794Z,0.72
2023-01-19T08:23:20.261Z,0.70
2023-01-19T08:25:48.791Z,0.72
2023-01-19T08:28:19.376Z,0.71
2023-01-19T08:30:54.696Z,0.69
2023-01-19T08:33:25.227Z,0.59
2023-01-19T08:35:55.171Z,0.50
2023-01-19T08:38:24.848Z,0.62
2023-01-19T08:40:53.554Z,0.67
2023-01-19T08:43:21.846Z,0.65
2023-01-19T08:45:52.947Z,0.68
2023-01-19T08:48:25.255Z,0.68
2023-01-19T08:50:54.039Z,0.73
2023-01-19T08:53:25.139Z,0.73
2023-01-19T08:55:59.799Z,0.85
2023-01-19T08:58:29.038Z,0.89
2023-01-19T09:00:57.400Z,0.92
2023-01-19T09:03:26.202Z,1.07
2023-01-19T09:05:54.532Z,1.19
2023-01-19T09:08:24.718Z,1.34
2023-01-19T09:10:53.131Z,1.51
2023-01-19T09:13:21.738Z,1.56
2023-01-19T09:15:50.952Z,1.64
2023-01-19T09:18:21.675Z,1.87
2023-01-19T09:20:52.120Z,2.03
2023-01-19T09:23:24.079Z,2.06
2023-01-19T09:25:57.824Z,2.24
2023-01-19T09:28:26.375Z,2.39
2023-01-19T09:30:55.465Z,2.56
2023-01-19T09:33:24.662Z,2.67
2023-01-19T09:35:53.511Z,2.69
2023-01-19T09:38:24.908Z,2.89
2023-01-19T09:40:55.526Z,2.92
2023-01-19T09:43:36.763Z,2.93
2023-01-19T09:46:12.773Z,3.00
2023-01-19T09:48:45.769Z,3.13
2023-01-19T09:51:18.629Z,3.16
2023-01-19T09:53:55.529Z,3.30
2023-01-19T09:56:25.613Z,3.46
2023-01-19T09:58:54.371Z,3.60
2023-01-19T10:01:38.887Z,3.64
2023-01-19T10:04:26.914Z,3.70
2023-01-19T10:07:05.144Z,3.55
2023-01-19T10:09:46.563Z,3.58
2023-01-19T10:12:30.019Z,3.65
2023-01-19T10:15:07.924Z,3.75
2023-01-19T10:17:53.747Z,3.64
2023-01-19T10:20:46.586Z,3.84
2023-01-19T10:23:23.382Z,3.40
2023-01-19T10:27:51.714Z,3.87
2023-01-19T10:33:55.904Z,3.24
2023-01-19T10:36:30.627Z,3.79
2023-01-19T10:38:59.342Z,3.70
2023-01-19T10:41:40.327Z,3.92
2023-01-19T10:44:24.296Z,4.25
2023-01-19T10:46:59.404Z,4.12
2023-01-19T10:52:54.243Z,4.78
2023-01-19T10:55:35.196Z,4.86
2023-01-19T10:58:33.283Z,4.77
2023-01-19T11:01:16.218Z,5.30
2023-01-19T11:03:45.919Z,5.41
2023-01-19T11:06:35.531Z,5.15
2023-01-19T11:09:13.874Z,5.45
2023-01-19T11:11:56.190Z,5.69
2023-01-19T11:14:43.683Z,5.85
2023-01-19T11:18:04.448Z,5.38
2023-01-19T11:21:00.943Z,5.80
2023-01-19T11:24:10.465Z,5.93
2023-01-19T11:26:47.855Z,5.90
2023-01-19T11:29:36.502Z,5.32
2023-01-19T11:32:37.459Z,5.18
2023-01-19T11:38:58.907Z,5.63
2023-01-19T11:41:29.912Z,5.49
2023-01-19T11:44:31.426Z,5.31
2023-01-19T11:47:35.095Z,6.05
2023-01-19T11:50:27.533Z,5.84
2023-01-19T11:53:07.394Z,5.76
2023-01-19T11:55:47.842Z,5.65
2023-01-19T11:58:40.222Z,5.21
2023-01-19T12:01:32.622Z,5.99
2023-01-19T12:04:15.990Z,6.28
2023-01-19T12:06:53.720Z,6.00
2023-01-19T12:09:35.076Z,6.39
2023-01-19T12:12:27.916Z,6.66
2023-01-19T12:16:08.032Z,6.81
2023-01-19T12:18:56.307Z,7.04
2023-01-19T12:21:35.746Z,7.20
2023-01-19T12:24:43.597Z,7.36
2023-01-19T12:27:30.450Z,7.21
2023-01-19T12:30:02.292Z,7.45
2023-01-19T12:32:44.128Z,7.38
2023-01-19T12:35:46.704Z,7.06
2023-01-19T12:38:37.293Z,6.70
2023-01-19T12:41:21.364Z,6.31
2023-01-19T12:44:06.408Z,6.19
2023-01-19T12:46:34.961Z,6.05
2023-01-19T12:49:06.601Z,6.07
2023-01-19T12:51:35.148Z,5.87
2023-01-19T12:54:21.053Z,5.87
2023-01-19T12:56:50.621Z,5.73
2023-01-19T12:59:26.572Z,5.67
2023-01-19T13:02:34.580Z,5.54
2023-01-19T13:05:15.947Z,5.30
2023-01-19T13:08:23.731Z,5.21
2023-01-19T13:11:21.047Z,4.92
2023-01-19T13:14:28.311Z,4.81
2023-01-19T13:17:18.298Z,4.57
2023-01-19T13:19:58.310Z,4.24
2023-01-19T13:23:03.667Z,4.39
2023-01-19T13:25:35.490Z,4.18
2023-01-19T13:28:11.967Z,4.19
2023-01-19T13:30:56.949Z,4.47
2023-01-19T13:33:29.242Z,5.05
2023-01-19T13:35:59.469Z,5.67
2023-01-19T13:38:34.474Z,6.07
2023-01-19T13:41:13.888Z,5.91
2023-01-19T13:43:44.602Z,6.62
2023-01-19T13:46:54.064Z,6.71
2023-01-19T13:49:30.729Z,6.80
2023-01-19T13:52:07.206Z,6.80
2023-01-19T13:54:36.143Z,7.09
2023-01-19T13:57:05.185Z,7.14
2023-01-19T13:59:36.584Z,7.44
2023-01-19T14:02:14.722Z,7.26
2023-01-19T14:04:47.355Z,6.64
2023-01-19T14:07:26.272Z,6.28
2023-01-19T14:10:05.155Z,5.94
2023-01-19T14:12:35.977Z,5.44
2023-01-19T14:15:14.064Z,5.36
2023-01-19T14:17:43.834Z,4.98
2023-01-19T14:20:30.707Z,4.88
2023-01-19T14:22:59.948Z,4.84
2023-01-19T14:25:31.638Z,4.92
2023-01-19T14:28:31.026Z,4.81
2023-01-19T14:31:03.475Z,4.52
2023-01-19T14:33:37.097Z,4.57
2023-01-19T14:36:25.877Z,4.38
2023-01-19T14:38:57.043Z,3.92
2023-01-19T14:41:30.103Z,3.85
2023-01-19T14:44:01.538Z,4.25
2023-01-19T14:46:31.471Z,4.30
2023-01-19T14:49:04.188Z,4.27
2023-01-19T14:51:33.308Z,4.20
2023-01-19T14:54:03.582Z,4.15
2023-01-19T14:56:34.104Z,4.12
2023-01-19T14:59:03.720Z,4.05
2023-01-19T15:01:36.003Z,3.93
2023-01-19T15:04:04.562Z,3.95
2023-01-19T15:06:35.512Z,3.81
2023-01-19T15:09:04.255Z,3.79
2023-01-19T15:11:36.027Z,3.89
2023-01-19T15:14:04.909Z,3.80
2023-01-19T15:16:37.732Z,3.81
2023-01-19T15:19:12.497Z,3.71
2023-01-19T15:21:42.355Z,3.59
2023-01-19T15:24:11.793Z,3.52
2023-01-19T15:26:42.070Z,3.50
2023-01-19T15:29:23.947Z,3.41
2023-01-19T15:31:54.211Z,3.01
2023-01-19T15:34:22.610Z,3.44
2023-01-19T15:36:52.970Z,3.08
2023-01-19T15:39:21.879Z,3.35
2023-01-19T15:41:50.317Z,3.31
2023-01-19T15:44:19.650Z,3.26
2023-01-19T15:46:48.113Z,3.21
2023-01-19T15:49:18.603Z,3.21
2023-01-19T15:51:47.669Z,3.27
2023-01-19T15:54:17.469Z,3.24
2023-01-19T15:56:46.513Z,3.36
2023-01-19T15:59:15.138Z,3.31
2023-01-19T16:01:44.370Z,3.38
2023-01-19T16:04:13.223Z,3.42
2023-01-19T16:06:43.572Z,3.26
2023-01-19T16:09:17.276Z,3.10
2023-01-19T16:11:46.076Z,2.97
2023-01-19T16:14:17.349Z,3.11
2023-01-19T16:16:46.214Z,2.99
2023-01-19T16:19:16.712Z,2.93
2023-01-19T16:21:47.007Z,3.06
2023-01-19T16:24:15.549Z,3.02
2023-01-19T16:26:46.618Z,3.19
2023-01-19T16:29:15.859Z,3.16
2023-01-19T16:31:45.486Z,3.11
2023-01-19T16:34:15.794Z,3.12
2023-01-19T16:36:44.124Z,3.14
2023-01-19T16:39:16.756Z,3.12
2023-01-19T16:41:48.540Z,3.06
2023-01-19T16:44:19.242Z,3.13
2023-01-19T16:46:49.815Z,3.15
2023-01-19T16:49:21.452Z,3.14
2023-01-19T16:51:51.155Z,2.89
2023-01-19T16:54:26.376Z,3.09
2023-01-19T16:56:56.815Z,2.99
2023-01-19T16:59:27.441Z,3.05
2023-01-19T17:01:56.971Z,3.07
2023-01-19T17:04:26.466Z,3.03
2023-01-19T17:07:10.232Z,3.02
2023-01-19T17:09:40.147Z,3.04
2023-01-19T17:12:10.614Z,3.00
2023-01-19T17:14:39.968Z,3.00
2023-01-19T17:17:10.379Z,2.96
2023-01-19T17:19:40.366Z,2.79
2023-01-19T17:22:09.525Z,2.90
2023-01-19T17:24:42.501Z,2.99
2023-01-19T17:27:13.634Z,2.88
2023-01-19T17:29:42.320Z,2.92
2023-01-19T17:32:17.700Z,3.08
2023-01-19T17:34:51.686Z,3.00
2023-01-19T17:37:23.437Z,3.06
2023-01-19T17:39:53.724Z,3.12
